createdAt,value
2018-02-02T00:01:31.992Z,72.71
2018-02-02T00:03:59.567Z,72.94
2018-02-02T00:06:27.097Z,73.03
2018-02-02T00:08:54.617Z,73.19
2018-02-02T00:11:22.185Z,73.08
2018-02-02T00:13:50.713Z,73.32
2018-02-02T00:16:18.237Z,73.34
2018-02-02T00:18:45.786Z,73.35
2018-02-02T00:21:13.343Z,73.48
2018-02-02T00:23:40.850Z,73.57
2018-02-02T00:26:08.450Z,73.58
2018-02-02T00:28:36.086Z,73.92
2018-02-02T00:31:03.606Z,73.95
2018-02-02T00:33:31.510Z,73.82
2018-02-02T00:35:59.026Z,74.12
2018-02-02T00:38:26.533Z,74.45
2018-02-02T00:40:54.394Z,74.75
2018-02-02T00:43:21.900Z,74.75
2018-02-02T00:45:49.425Z,75.11
2018-02-02T00:48:17.277Z,75.24
2018-02-02T00:50:50.385Z,75.12
2018-02-02T00:53:18.235Z,75.25
2018-02-02T00:55:45.784Z,75.56
2018-02-02T00:58:13.666Z,75.67
2018-02-02T01:00:41.316Z,75.55
2018-02-02T01:03:09.096Z,75.68
2018-02-02T01:05:36.652Z,75.60
2018-02-02T01:08:04.223Z,75.62
2018-02-02T01:10:31.762Z,75.73
2018-02-02T01:12:59.543Z,76.35
2018-02-02T01:15:27.319Z,76.19
2018-02-02T01:17:55.182Z,76.31
2018-02-02T01:20:22.742Z,76.37
2018-02-02T01:22:50.353Z,76.64
2018-02-02T01:25:17.887Z,76.71
2018-02-02T01:27:45.439Z,76.13
2018-02-02T01:30:13.022Z,75.88
2018-02-02T01:32:40.610Z,75.92
2018-02-02T01:35:08.409Z,76.15
2018-02-02T01:37:35.961Z,76.34
2018-02-02T01:40:03.510Z,76.76
2018-02-02T01:42:31.021Z,76.96
2018-02-02T01:44:58.869Z,77.00
2018-02-02T01:47:26.397Z,76.75
2018-02-02T01:49:53.918Z,76.78
2018-02-02T01:52:21.481Z,76.87
2018-02-02T01:54:49.014Z,76.91
2018-02-02T01:57:17.485Z,77.00
2018-02-02T01:59:45.035Z,77.11
2018-02-02T02:02:12.614Z,77.43
2018-02-02T02:04:40.131Z,77.35
2018-02-02T02:07:07.709Z,77.37
2018-02-02T02:09:35.489Z,77.50
2018-02-02T02:12:03.022Z,77.42
2018-02-02T02:14:30.569Z,77.29
2018-02-02T02:16:58.090Z,77.23
2018-02-02T02:19:25.641Z,77.43
2018-02-02T02:21:53.238Z,77.30
2018-02-02T02:24:20.746Z,77.74
2018-02-02T02:26:48.270Z,78.28
2018-02-02T02:29:15.813Z,78.72
2018-02-02T02:31:43.334Z,78.98
2018-02-02T02:34:10.841Z,79.32
2018-02-02T02:36:38.398Z,79.50
2018-02-02T02:39:05.940Z,79.48
2018-02-02T02:41:33.470Z,79.24
2018-02-02T02:44:01.014Z,79.69
2018-02-02T02:46:28.556Z,79.62
2018-02-02T02:48:56.094Z,79.37
2018-02-02T02:51:23.671Z,79.29
2018-02-02T02:53:51.215Z,79.27
2018-02-02T02:56:18.736Z,79.43
2018-02-02T02:58:46.289Z,79.32
2018-02-02T03:01:13.866Z,80.11
2018-02-02T03:03:41.391Z,80.30
2018-02-02T03:06:08.922Z,80.50
2018-02-02T03:08:36.481Z,80.17
2018-02-02T03:11:04.020Z,80.67
2018-02-02T03:13:31.865Z,80.85
2018-02-02T03:15:59.409Z,81.05
2018-02-02T03:18:26.925Z,80.82
2018-02-02T03:20:54.469Z,80.76
2018-02-02T03:23:22.002Z,80.81
2018-02-02T03:25:49.534Z,80.67
2018-02-02T03:28:17.058Z,80.86
2018-02-02T03:30:44.628Z,80.88
2018-02-02T03:33:12.158Z,80.89
2018-02-02T03:35:39.709Z,81.52
2018-02-02T03:38:07.235Z,81.38
2018-02-02T03:40:34.769Z,81.13
2018-02-02T03:43:02.337Z,81.14
2018-02-02T03:45:29.874Z,81.70
2018-02-02T03:47:57.393Z,81.75
2018-02-02T03:50:24.942Z,81.67
2018-02-02T03:52:52.480Z,81.72
2018-02-02T03:55:20.002Z,81.80
2018-02-02T03:57:47.555Z,81.90
2018-02-02T04:00:15.321Z,81.85
2018-02-02T04:02:42.881Z,81.94
2018-02-02T04:05:10.445Z,82.14
2018-02-02T04:07:37.977Z,82.12
2018-02-02T04:10:05.558Z,82.18
2018-02-02T04:12:33.080Z,82.03
2018-02-02T04:15:00.625Z,81.82
2018-02-02T04:17:28.183Z,81.84
2018-02-02T04:19:55.958Z,81.76
2018-02-02T04:22:23.798Z,81.54
2018-02-02T04:24:51.344Z,81.75
2018-02-02T04:27:18.901Z,82.36
2018-02-02T04:29:46.446Z,82.40
2018-02-02T04:32:14.024Z,82.60
2018-02-02T04:34:41.580Z,82.68
2018-02-02T04:37:09.242Z,82.81
2018-02-02T04:39:36.763Z,82.84
2018-02-02T04:42:04.275Z,83.26
2018-02-02T04:44:31.853Z,83.46
2018-02-02T04:46:59.432Z,83.54
2018-02-02T04:49:26.991Z,83.75
2018-02-02T04:51:54.512Z,83.48
2018-02-02T04:54:22.057Z,83.70
2018-02-02T04:56:49.660Z,83.59
2018-02-02T04:59:17.265Z,83.62
2018-02-02T05:01:44.812Z,83.60
2018-02-02T05:04:12.611Z,83.71
2018-02-02T05:06:40.221Z,83.77
2018-02-02T05:09:08.039Z,83.82
2018-02-02T05:11:35.554Z,83.42
2018-02-02T05:14:03.081Z,83.39
2018-02-02T05:16:30.602Z,83.09
2018-02-02T05:18:58.211Z,83.76
2018-02-02T05:21:25.725Z,83.91
2018-02-02T05:23:53.313Z,83.78
2018-02-02T05:26:20.846Z,83.59
2018-02-02T05:28:48.641Z,83.70
2018-02-02T05:31:16.235Z,83.87
2018-02-02T05:33:43.762Z,84.25
2018-02-02T05:36:11.376Z,84.37
2018-02-02T05:38:38.915Z,84.43
2018-02-02T05:41:06.798Z,84.47
2018-02-02T05:43:34.610Z,84.30
2018-02-02T05:46:02.134Z,84.17
2018-02-02T05:48:29.784Z,84.45
2018-02-02T05:50:57.317Z,84.04
2018-02-02T05:53:24.986Z,83.92
2018-02-02T05:55:52.541Z,84.47
2018-02-02T05:58:20.058Z,84.21
2018-02-02T06:00:47.628Z,84.29
2018-02-02T06:03:15.174Z,83.81
2018-02-02T06:05:42.715Z,83.92
2018-02-02T06:08:10.630Z,84.03
2018-02-02T06:10:38.133Z,83.88
2018-02-02T06:13:05.723Z,84.01
2018-02-02T06:15:33.289Z,83.93
2018-02-02T06:18:00.842Z,83.60
2018-02-02T06:20:28.408Z,83.37
2018-02-02T06:22:56.177Z,83.85
2018-02-02T06:25:25.038Z,83.78
2018-02-02T06:27:52.690Z,83.70
2018-02-02T06:30:20.235Z,83.69
2018-02-02T06:32:47.814Z,83.68
2018-02-02T06:35:15.362Z,83.53
2018-02-02T06:37:42.902Z,83.33
2018-02-02T06:40:10.474Z,83.27
2018-02-02T06:42:38.007Z,83.67
2018-02-02T06:45:05.558Z,83.51
2018-02-02T06:47:33.081Z,83.35
2018-02-02T06:50:00.634Z,83.09
2018-02-02T06:52:28.161Z,83.16
2018-02-02T06:54:56.011Z,83.12
2018-02-02T06:57:23.588Z,83.22
2018-02-02T06:59:51.443Z,83.24
2018-02-02T07:02:18.983Z,83.04
2018-02-02T07:04:46.514Z,83.00
2018-02-02T07:07:14.433Z,82.66
2018-02-02T07:09:42.227Z,82.68
2018-02-02T07:12:09.768Z,82.53
2018-02-02T07:14:37.362Z,82.80
2018-02-02T07:17:04.881Z,82.55
2018-02-02T07:19:32.454Z,82.12
2018-02-02T07:22:00.056Z,82.23
2018-02-02T07:24:27.680Z,82.09
2018-02-02T07:26:55.241Z,81.48
2018-02-02T07:29:23.040Z,81.58
2018-02-02T07:31:51.284Z,81.34
2018-02-02T07:34:18.944Z,81.10
2018-02-02T07:36:46.482Z,80.67
2018-02-02T07:39:14.362Z,80.50
2018-02-02T07:41:42.386Z,80.50
2018-02-02T07:44:09.948Z,80.27
2018-02-02T07:46:37.475Z,80.42
2018-02-02T07:49:05.194Z,80.46
2018-02-02T07:51:32.762Z,80.02
2018-02-02T07:54:00.283Z,79.74
2018-02-02T07:56:27.855Z,79.69
2018-02-02T07:58:55.383Z,80.01
2018-02-02T08:01:22.987Z,79.57
2018-02-02T08:03:50.512Z,79.40
2018-02-02T08:06:18.130Z,79.46
2018-02-02T08:08:45.974Z,79.42
2018-02-02T08:11:13.787Z,78.87
2018-02-02T08:13:41.394Z,78.53
2018-02-02T08:16:08.935Z,78.75
2018-02-02T08:18:36.479Z,78.28
2018-02-02T08:21:04.234Z,78.20
2018-02-02T08:23:31.789Z,78.41
2018-02-02T08:25:59.308Z,77.80
2018-02-02T08:28:27.062Z,77.52
2018-02-02T08:30:54.620Z,77.13
2018-02-02T08:33:22.257Z,77.64
2018-02-02T08:35:50.100Z,77.13
2018-02-02T08:38:17.937Z,77.25
2018-02-02T08:40:45.729Z,76.82
2018-02-02T08:43:13.236Z,76.87
2018-02-02T08:45:40.807Z,77.09
2018-02-02T08:48:08.350Z,77.15
2018-02-02T08:50:35.892Z,76.83
2018-02-02T08:53:03.420Z,76.49
2018-02-02T08:55:31.312Z,76.21
2018-02-02T08:57:59.174Z,76.58
2018-02-02T09:00:26.786Z,75.74
2018-02-02T09:02:54.607Z,75.27
2018-02-02T09:05:22.158Z,75.68
2018-02-02T09:07:49.684Z,75.53
2018-02-02T09:10:17.487Z,75.26
2018-02-02T09:12:45.028Z,74.70
2018-02-02T09:15:12.568Z,74.24
2018-02-02T09:17:40.122Z,74.14
2018-02-02T09:20:07.760Z,73.60
2018-02-02T09:22:35.288Z,73.05
2018-02-02T09:25:03.155Z,73.58
2018-02-02T09:27:30.914Z,73.11
2018-02-02T09:29:58.480Z,73.27
2018-02-02T09:32:26.007Z,73.08
2018-02-02T09:34:53.549Z,72.85
2018-02-02T09:37:21.062Z,73.83
2018-02-02T09:39:48.602Z,74.35
2018-02-02T09:42:16.199Z,74.38
2018-02-02T09:44:43.758Z,74.50
2018-02-02T09:47:11.276Z,74.45
2018-02-02T09:49:38.802Z,74.58
2018-02-02T09:52:06.361Z,74.50
2018-02-02T09:54:33.869Z,74.45
2018-02-02T09:57:01.453Z,73.82
2018-02-02T09:59:29.141Z,72.80
2018-02-02T10:01:57.350Z,72.11
2018-02-02T10:04:25.150Z,71.86
2018-02-02T10:06:52.917Z,71.86
2018-02-02T10:09:20.463Z,71.78
2018-02-02T10:11:48.347Z,71.67
2018-02-02T10:14:15.926Z,72.04
2018-02-02T10:16:43.499Z,71.74
2018-02-02T10:19:11.042Z,71.92
2018-02-02T10:21:38.630Z,71.40
2018-02-02T10:24:07.499Z,71.28
2018-02-02T10:26:35.053Z,70.71
2018-02-02T10:29:02.590Z,70.68
2018-02-02T10:31:30.172Z,70.12
2018-02-02T10:33:57.929Z,69.21
2018-02-02T10:36:25.592Z,69.14
2018-02-02T10:38:53.125Z,69.04
2018-02-02T10:41:20.698Z,68.78
2018-02-02T10:43:48.233Z,68.66
2018-02-02T10:46:15.775Z,68.44
2018-02-02T10:48:43.314Z,68.71
2018-02-02T10:51:10.843Z,68.61
2018-02-02T10:53:38.394Z,67.70
2018-02-02T10:56:05.996Z,67.15
2018-02-02T10:58:33.559Z,67.34
2018-02-02T11:01:06.752Z,66.84
2018-02-02T11:03:34.853Z,66.43
2018-02-02T11:06:02.580Z,66.79
2018-02-02T11:08:30.146Z,66.86
2018-02-02T11:10:57.709Z,66.51
2018-02-02T11:13:25.383Z,66.05
2018-02-02T11:15:53.024Z,65.67
2018-02-02T11:18:20.545Z,65.28
2018-02-02T11:20:48.346Z,65.60
2018-02-02T11:23:16.212Z,64.62
2018-02-02T11:25:43.779Z,64.57
2018-02-02T11:28:11.503Z,64.29
2018-02-02T11:30:39.029Z,63.83
2018-02-02T11:33:06.740Z,63.72
2018-02-02T11:35:34.346Z,63.59
2018-02-02T11:38:01.924Z,63.79
2018-02-02T11:40:29.669Z,64.21
2018-02-02T11:42:57.508Z,63.42
2018-02-02T11:45:25.487Z,63.97
2018-02-02T11:47:53.071Z,63.95
2018-02-02T11:50:20.907Z,63.95
2018-02-02T11:52:48.421Z,63.61
2018-02-02T11:55:16.351Z,63.43
2018-02-02T11:57:43.873Z,63.46
2018-02-02T12:00:11.445Z,62.84
2018-02-02T12:02:38.994Z,62.39
2018-02-02T12:05:06.498Z,61.84
2018-02-02T12:07:34.084Z,62.53
2018-02-02T12:10:01.608Z,62.17
2018-02-02T12:12:29.317Z,61.98
2018-02-02T12:14:56.882Z,62.61
2018-02-02T12:17:24.482Z,62.61
2018-02-02T12:19:54.306Z,62.80
2018-02-02T12:22:27.408Z,62.58
2018-02-02T12:28:01.569Z,62.70
2018-02-02T12:30:43.993Z,62.83
2018-02-02T12:33:16.205Z,62.75
2018-02-02T12:35:49.149Z,63.16
2018-02-02T12:38:16.763Z,62.95
2018-02-02T12:40:44.359Z,63.26
2018-02-02T12:43:11.928Z,63.24
2018-02-02T12:45:39.428Z,63.79
2018-02-02T12:48:11.890Z,64.02
2018-02-02T12:50:51.174Z,64.03
2018-02-02T12:53:18.760Z,64.60
2018-02-02T12:55:46.577Z,64.53
2018-02-02T12:58:14.454Z,64.67
2018-02-02T13:00:42.032Z,64.74
2018-02-02T13:03:09.547Z,64.66
2018-02-02T13:05:37.115Z,64.39
2018-02-02T13:08:04.636Z,64.65
2018-02-02T13:10:32.190Z,64.69
2018-02-02T13:12:59.726Z,64.94
2018-02-02T13:15:27.589Z,64.97
2018-02-02T13:17:55.223Z,65.35
2018-02-02T13:20:22.748Z,64.99
2018-02-02T13:22:50.320Z,64.95
2018-02-02T13:25:17.840Z,64.76
2018-02-02T13:27:45.416Z,64.53
2018-02-02T13:30:12.935Z,64.97
2018-02-02T13:32:40.543Z,64.81
2018-02-02T13:35:08.065Z,64.77
2018-02-02T13:37:35.621Z,64.82
2018-02-02T13:40:03.142Z,64.85
2018-02-02T13:42:30.767Z,64.79
2018-02-02T13:44:58.302Z,64.74
2018-02-02T13:47:25.857Z,64.46
2018-02-02T13:49:53.441Z,64.41
2018-02-02T13:52:20.975Z,64.39
2018-02-02T13:54:48.509Z,64.14
2018-02-02T13:57:16.319Z,64.20
2018-02-02T13:59:43.857Z,64.51
2018-02-02T14:02:11.642Z,64.38
2018-02-02T14:04:39.219Z,64.54
2018-02-02T14:07:06.744Z,64.75
2018-02-02T14:09:34.408Z,64.69
2018-02-02T14:12:02.187Z,64.50
2018-02-02T14:14:29.874Z,64.68
2018-02-02T14:16:57.445Z,64.81
2018-02-02T14:19:24.966Z,64.84
2018-02-02T14:21:52.493Z,65.11
2018-02-02T14:24:20.012Z,64.94
2018-02-02T14:26:47.572Z,65.19
2018-02-02T14:29:15.353Z,65.25
2018-02-02T14:31:43.058Z,65.35
2018-02-02T14:34:10.614Z,65.53
2018-02-02T14:36:38.226Z,65.44
2018-02-02T14:39:05.786Z,65.61
2018-02-02T14:41:33.322Z,66.44
2018-02-02T14:44:01.047Z,67.32
2018-02-02T14:46:28.606Z,69.73
2018-02-02T14:48:56.167Z,70.90
2018-02-02T14:51:23.986Z,71.27
2018-02-02T14:53:51.556Z,71.39
2018-02-02T14:56:19.114Z,71.91
2018-02-02T14:58:46.976Z,71.67
2018-02-02T15:01:14.500Z,72.62
2018-02-02T15:03:42.400Z,72.53
2018-02-02T15:06:09.954Z,72.80
2018-02-02T15:08:37.508Z,73.11
2018-02-02T15:11:05.036Z,72.94
2018-02-02T15:13:32.614Z,73.64
2018-02-02T15:16:00.145Z,73.61
2018-02-02T15:18:27.749Z,73.73
2018-02-02T15:20:55.528Z,74.40
2018-02-02T15:23:23.114Z,74.59
2018-02-02T15:25:50.698Z,74.79
2018-02-02T15:28:18.514Z,74.85
2018-02-02T15:30:46.061Z,75.03
2018-02-02T15:33:13.586Z,75.89
2018-02-02T15:35:41.634Z,76.06
2018-02-02T15:38:09.380Z,76.42
2018-02-02T15:40:36.965Z,77.05
2018-02-02T15:43:04.483Z,77.91
2018-02-02T15:45:31.997Z,78.36
2018-02-02T15:47:59.577Z,78.71
2018-02-02T15:50:27.113Z,78.85
2018-02-02T15:52:54.667Z,78.78
2018-02-02T15:55:22.504Z,78.59
2018-02-02T15:57:50.078Z,78.79
2018-02-02T16:00:17.663Z,78.78
2018-02-02T16:02:45.214Z,78.64
2018-02-02T16:05:12.806Z,78.09
2018-02-02T16:07:40.353Z,78.22
2018-02-02T16:10:07.914Z,78.26
2018-02-02T16:12:35.458Z,78.29
2018-02-02T16:15:03.030Z,78.05
2018-02-02T16:17:30.559Z,78.38
2018-02-02T16:19:58.131Z,78.88
2018-02-02T16:22:25.686Z,78.93
2018-02-02T16:24:53.534Z,78.95
2018-02-02T16:27:21.165Z,79.26
2018-02-02T16:29:48.709Z,79.30
2018-02-02T16:32:16.246Z,79.30
2018-02-02T16:34:43.767Z,79.57
2018-02-02T16:37:11.293Z,79.87
2018-02-02T16:39:39.209Z,79.88
2018-02-02T16:42:06.827Z,80.28
2018-02-02T16:44:34.392Z,80.38
2018-02-02T16:47:01.905Z,80.60
2018-02-02T16:49:29.446Z,80.80
2018-02-02T16:51:56.976Z,81.33
2018-02-02T16:54:24.583Z,81.62
2018-02-02T16:56:52.441Z,81.86
2018-02-02T16:59:20.010Z,82.15
2018-02-02T17:01:47.866Z,82.66
2018-02-02T17:04:15.541Z,82.65
2018-02-02T17:06:43.181Z,82.67
2018-02-02T17:09:10.950Z,82.40
2018-02-02T17:11:38.550Z,82.12
2018-02-02T17:14:06.148Z,82.50
2018-02-02T17:16:33.728Z,82.82
2018-02-02T17:19:01.358Z,83.29
2018-02-02T17:21:28.912Z,83.71
2018-02-02T17:23:56.434Z,83.56
2018-02-02T17:26:23.972Z,83.53
2018-02-02T17:28:51.543Z,83.15
2018-02-02T17:31:19.220Z,83.16
2018-02-02T17:33:46.796Z,83.25
2018-02-02T17:36:14.328Z,83.69
2018-02-02T17:38:41.952Z,84.41
2018-02-02T17:41:09.487Z,84.54
2018-02-02T17:43:36.997Z,84.63
2018-02-02T17:46:04.881Z,84.69
2018-02-02T17:48:32.601Z,84.20
2018-02-02T17:51:00.141Z,84.22
2018-02-02T17:53:27.989Z,84.12
2018-02-02T17:55:55.575Z,84.60
2018-02-02T17:58:23.219Z,84.14
2018-02-02T18:00:53.345Z,84.22
2018-02-02T18:03:20.886Z,84.32
2018-02-02T18:05:48.428Z,84.52
2018-02-02T18:08:16.438Z,84.69
2018-02-02T18:10:43.968Z,84.73
2018-02-02T18:13:11.526Z,84.65
2018-02-02T18:15:39.043Z,84.17
2018-02-02T18:18:06.604Z,84.42
2018-02-02T18:20:34.152Z,84.74
2018-02-02T18:23:01.674Z,85.08
2018-02-02T18:25:29.230Z,85.13
2018-02-02T18:27:56.746Z,84.83
2018-02-02T18:30:24.294Z,85.11
2018-02-02T18:32:52.116Z,85.16
2018-02-02T18:35:19.663Z,85.28
2018-02-02T18:37:47.194Z,85.27
2018-02-02T18:40:14.712Z,85.57
2018-02-02T18:42:42.262Z,85.44
2018-02-02T18:45:09.861Z,85.39
2018-02-02T18:47:37.415Z,85.55
2018-02-02T18:50:04.945Z,85.55
2018-02-02T18:52:32.917Z,85.90
2018-02-02T18:55:00.427Z,86.12
2018-02-02T18:57:28.234Z,85.67
2018-02-02T18:59:55.787Z,86.19
2018-02-02T19:02:23.319Z,86.15
2018-02-02T19:04:50.881Z,86.05
2018-02-02T19:07:18.442Z,86.25
2018-02-02T19:09:46.060Z,86.32
2018-02-02T19:12:13.633Z,86.54
2018-02-02T19:14:41.439Z,86.26
2018-02-02T19:17:08.987Z,86.05
2018-02-02T19:19:36.801Z,85.81
2018-02-02T19:22:04.338Z,86.09
2018-02-02T19:24:31.949Z,85.80
2018-02-02T19:26:59.489Z,85.86
2018-02-02T19:29:27.032Z,85.55
2018-02-02T19:31:54.565Z,85.50
2018-02-02T19:34:22.097Z,85.23
2018-02-02T19:36:49.684Z,85.21
2018-02-02T19:39:17.252Z,84.93
2018-02-02T19:41:44.797Z,85.14
2018-02-02T19:44:12.392Z,84.96
2018-02-02T19:46:40.022Z,85.18
2018-02-02T19:49:07.659Z,85.02
2018-02-02T19:51:35.221Z,84.91
2018-02-02T19:54:02.778Z,85.05
2018-02-02T19:56:30.622Z,84.84
2018-02-02T19:58:58.398Z,85.08
2018-02-02T20:01:25.987Z,84.66
2018-02-02T20:03:54.247Z,85.25
2018-02-02T20:06:21.893Z,84.86
2018-02-02T20:08:50.723Z,85.28
2018-02-02T20:11:18.335Z,85.05
2018-02-02T20:13:46.198Z,84.82
2018-02-02T20:16:13.782Z,84.60
2018-02-02T20:18:41.348Z,84.47
2018-02-02T20:21:08.903Z,84.40
2018-02-02T20:23:36.452Z,84.64
2018-02-02T20:26:03.977Z,84.70
2018-02-02T20:28:31.517Z,84.87
2018-02-02T20:30:59.056Z,84.94
2018-02-02T20:33:26.617Z,84.71
2018-02-02T20:35:54.162Z,84.79
2018-02-02T20:38:22.011Z,84.59
2018-02-02T20:40:49.621Z,84.55
2018-02-02T20:43:17.183Z,84.75
2018-02-02T20:45:44.825Z,84.64
2018-02-02T20:48:12.405Z,84.57
2018-02-02T20:50:40.037Z,84.62
2018-02-02T20:53:07.592Z,84.72
2018-02-02T20:55:35.167Z,84.63
2018-02-02T20:58:02.721Z,84.76
2018-02-02T21:00:30.267Z,84.65
2018-02-02T21:02:57.837Z,84.68
2018-02-02T21:05:25.376Z,84.84
2018-02-02T21:07:52.916Z,84.89
2018-02-02T21:10:20.614Z,84.85
2018-02-02T21:12:48.161Z,85.03
2018-02-02T21:15:15.684Z,84.80
2018-02-02T21:17:43.306Z,84.83
2018-02-02T21:20:10.874Z,84.50
2018-02-02T21:22:38.419Z,84.43
2018-02-02T21:25:05.961Z,84.48
2018-02-02T21:27:33.507Z,84.58
2018-02-02T21:30:01.031Z,85.16
2018-02-02T21:32:28.563Z,84.95
2018-02-02T21:34:56.100Z,84.93
2018-02-02T21:37:23.768Z,84.95
2018-02-02T21:39:51.321Z,84.89
2018-02-02T21:42:19.098Z,85.00
2018-02-02T21:44:46.663Z,85.26
2018-02-02T21:47:14.530Z,84.92
2018-02-02T21:49:42.082Z,84.83
2018-02-02T21:52:09.862Z,84.86
2018-02-02T21:54:37.381Z,84.96
2018-02-02T21:57:05.014Z,84.70
2018-02-02T21:59:32.621Z,84.93
2018-02-02T22:02:00.188Z,85.30
2018-02-02T22:04:27.748Z,85.48
2018-02-02T22:06:55.310Z,85.13
2018-02-02T22:09:22.972Z,85.10
2018-02-02T22:11:50.603Z,85.50
2018-02-02T22:14:18.190Z,84.94
2018-02-02T22:16:46.080Z,85.35
2018-02-02T22:19:13.945Z,85.62
2018-02-02T22:21:41.521Z,85.31
2018-02-02T22:24:09.065Z,85.26
2018-02-02T22:26:36.838Z,84.93
2018-02-02T22:29:04.362Z,84.77
2018-02-02T22:31:31.907Z,84.89
2018-02-02T22:33:59.528Z,85.01
2018-02-02T22:36:27.079Z,84.69
2018-02-02T22:38:54.592Z,84.42
2018-02-02T22:41:22.170Z,84.32
2018-02-02T22:43:49.741Z,84.74
2018-02-02T22:46:17.271Z,84.87
2018-02-02T22:48:44.835Z,85.51
2018-02-02T22:51:12.350Z,85.44
2018-02-02T22:53:39.882Z,85.33
2018-02-02T22:56:07.428Z,85.68
2018-02-02T22:58:34.971Z,85.75
2018-02-02T23:01:02.509Z,85.66
2018-02-02T23:03:30.047Z,85.78
2018-02-02T23:05:57.586Z,85.53
2018-02-02T23:08:25.109Z,85.72
2018-02-02T23:10:52.931Z,85.59
2018-02-02T23:13:20.791Z,85.71
2018-02-02T23:15:48.288Z,85.49
2018-02-02T23:18:16.124Z,85.34
2018-02-02T23:20:43.885Z,85.10
2018-02-02T23:23:11.420Z,85.39
2018-02-02T23:25:38.985Z,85.02
2018-02-02T23:28:06.518Z,85.08
2018-02-02T23:30:34.334Z,85.30
2018-02-02T23:33:01.921Z,85.84
2018-02-02T23:35:29.762Z,85.71
2018-02-02T23:37:57.288Z,85.57
2018-02-02T23:40:24.827Z,85.35
2018-02-02T23:42:52.650Z,85.07
2018-02-02T23:45:20.470Z,84.99
2018-02-02T23:47:47.983Z,84.96
2018-02-02T23:50:15.541Z,85.04
2018-02-02T23:52:43.299Z,85.26
2018-02-02T23:55:11.193Z,85.18
2018-02-02T23:57:38.702Z,84.94
